Time;durP1;ratioP1;P1;durP2;ratioP2;P2;SDS_P1;SDS_P2;PMS_P1;PMS_P2;Temp;Humidity;BMP_temperature;BMP_pressure;BME280_temperature;BME280_humidity;BME280_pressure;Samples;Min_cycle;Max_cycle;Signal;HPM_P1;HPM_P2
2023/04/11 00:01:31;;;;;;;4.53;2.70;;;21.20;43.90;;;;;;5044425;28;20534;-77
2023/04/11 00:03:59;;;;;;;2.53;2.40;;;21.20;44.00;;;;;;5049334;28;20952;-77
2023/04/11 00:06:28;;;;;;;2.43;2.20;;;21.20;44.00;;;;;;5056811;28;20446;-77
2023/04/11 00:08:55;;;;;;;4.13;2.60;;;21.20;44.00;;;;;;5046455;28;20479;-77
2023/04/11 00:11:24;;;;;;;5.80;2.83;;;21.20;44.10;;;;;;5054548;28;20518;-77
2023/04/11 00:13:56;;;;;;;4.13;2.40;;;21.20;44.10;;;;;;5051410;28;20982;-76
2023/04/11 00:16:25;;;;;;;3.07;2.70;;;21.20;44.10;;;;;;5054014;28;20430;-77
2023/04/11 00:18:55;;;;;;;3.60;2.33;;;21.10;44.10;;;;;;5047244;28;20464;-78
2023/04/11 00:21:24;;;;;;;2.20;2.10;;;21.20;44.30;;;;;;5057511;28;20470;-77
2023/04/11 00:23:52;;;;;;;3.17;2.37;;;21.10;44.20;;;;;;5043063;28;20832;-78
2023/04/11 00:26:21;;;;;;;2.70;2.50;;;21.20;44.20;;;;;;5053258;28;20431;-78
2023/04/11 00:28:48;;;;;;;3.67;2.50;;;21.20;44.10;;;;;;5047593;28;20471;-77
2023/04/11 00:31:16;;;;;;;2.20;2.10;;;21.20;44.10;;;;;;5053348;28;20966;-78
2023/04/11 00:33:44;;;;;;;2.73;2.43;;;21.20;44.10;;;;;;5058633;28;20498;-78
2023/04/11 00:36:13;;;;;;;2.53;2.33;;;21.20;44.20;;;;;;5048770;28;20447;-78
2023/04/11 00:38:43;;;;;;;2.50;2.27;;;21.20;44.20;;;;;;5048387;28;20482;-77
2023/04/11 00:41:11;;;;;;;2.70;2.50;;;21.20;44.10;;;;;;5046033;28;20449;-78
2023/04/11 00:43:39;;;;;;;2.70;2.50;;;21.10;44.20;;;;;;5052899;28;20451;-77
2023/04/11 00:46:08;;;;;;;6.97;2.53;;;21.10;44.10;;;;;;5053531;28;20496;-79
2023/04/11 00:48:36;;;;;;;3.73;2.90;;;21.10;44.00;;;;;;5052952;28;20451;-77
2023/04/11 00:51:04;;;;;;;2.33;2.20;;;21.10;44.10;;;;;;5049001;28;20454;-77
2023/04/11 00:53:34;;;;;;;3.53;2.37;;;21.10;44.10;;;;;;5042103;28;20498;-77
2023/04/11 00:56:01;;;;;;;2.60;2.40;;;21.00;44.10;;;;;;5051412;28;20457;-76
2023/04/11 00:58:29;;;;;;;2.60;2.40;;;21.00;44.20;;;;;;5057091;28;20469;-77
2023/04/11 01:00:57;;;;;;;3.60;2.00;;;21.00;44.20;;;;;;5052880;28;20457;-78
2023/04/11 01:03:25;;;;;;;2.27;1.87;;;21.00;44.10;;;;;;5053906;28;20439;-78
2023/04/11 01:05:53;;;;;;;2.63;2.43;;;20.90;44.00;;;;;;5045313;28;20530;-78
2023/04/11 01:08:21;;;;;;;2.77;2.07;;;20.80;44.30;;;;;;5058355;28;20487;-77
2023/04/11 01:10:51;;;;;;;3.57;2.30;;;20.80;44.30;;;;;;5050284;28;20483;-77
2023/04/11 01:13:19;;;;;;;3.43;2.00;;;20.70;44.30;;;;;;5052359;28;20466;-77
2023/04/11 01:15:47;;;;;;;4.13;2.47;;;20.70;44.40;;;;;;5053834;28;20870;-78
2023/04/11 01:18:15;;;;;;;2.87;2.37;;;20.60;44.50;;;;;;5053296;28;20450;-77
2023/04/11 01:20:43;;;;;;;2.57;2.37;;;20.60;44.50;;;;;;5052518;28;20977;-77
2023/04/11 01:23:11;;;;;;;2.10;2.00;;;20.60;44.60;;;;;;5052948;28;20449;-77
2023/04/11 01:25:40;;;;;;;2.60;2.50;;;20.60;44.60;;;;;;5051728;28;20482;-78
2023/04/11 01:28:09;;;;;;;3.90;2.50;;;20.60;44.70;;;;;;5046204;28;20443;-78
2023/04/11 01:30:36;;;;;;;2.63;2.43;;;20.50;44.60;;;;;;5050164;28;20455;-78
2023/04/11 01:33:05;;;;;;;3.63;2.40;;;20.50;44.90;;;;;;5053106;28;20455;-78
2023/04/11 01:35:33;;;;;;;2.90;2.60;;;20.40;44.70;;;;;;5058397;28;20450;-78
2023/04/11 01:38:02;;;;;;;2.47;2.27;;;20.40;44.80;;;;;;5060503;28;20475;-77
2023/04/11 01:40:31;;;;;;;2.20;2.03;;;20.40;45.00;;;;;;5053200;28;20450;-78
2023/04/11 01:43:02;;;;;;;2.30;2.20;;;20.30;44.90;;;;;;5055510;28;20450;-78
2023/04/11 01:45:29;;;;;;;2.40;2.30;;;20.30;44.80;;;;;;5054346;28;20442;-78
2023/04/11 01:47:58;;;;;;;2.53;2.10;;;20.30;45.00;;;;;;5051938;28;20454;-78
2023/04/11 01:50:26;;;;;;;2.70;2.50;;;20.30;45.10;;;;;;5053983;28;20455;-78
2023/04/11 01:52:54;;;;;;;2.87;2.30;;;20.30;45.10;;;;;;5053710;28;20446;-78
2023/04/11 01:55:22;;;;;;;2.40;2.30;;;20.30;45.10;;;;;;5052834;28;20466;-78
2023/04/11 01:57:50;;;;;;;2.60;2.40;;;20.30;45.10;;;;;;5046672;28;20454;-78
2023/04/11 02:00:21;;;;;;;2.63;2.40;;;20.30;45.10;;;;;;5048696;28;20462;-77
2023/04/11 02:02:48;;;;;;;2.60;2.40;;;20.30;45.20;;;;;;5052804;28;20451;-78
2023/04/11 02:05:17;;;;;;;2.63;2.30;;;20.20;45.20;;;;;;5053913;28;20478;-77
2023/04/11 02:07:45;;;;;;;2.90;2.70;;;20.20;45.20;;;;;;5046252;28;20474;-78
2023/04/11 02:10:12;;;;;;;2.50;2.30;;;20.20;45.40;;;;;;5040703;28;20466;-77
2023/04/11 02:12:40;;;;;;;2.57;2.27;;;20.20;45.40;;;;;;5053302;28;20477;-78
2023/04/11 02:15:08;;;;;;;3.50;2.50;;;20.20;45.30;;;;;;5053021;28;20485;-78
2023/04/11 02:17:43;;;;;;;3.30;2.50;;;20.10;45.40;;;;;;5048771;28;20458;-77
2023/04/11 02:20:12;;;;;;;1.90;1.80;;;20.10;45.30;;;;;;5044872;28;20457;-78
2023/04/11 02:22:40;;;;;;;2.70;2.50;;;20.10;45.50;;;;;;5053627;28;20431;-78
2023/04/11 02:25:08;;;;;;;2.60;2.27;;;20.10;45.40;;;;;;5052097;28;20441;-77
2023/04/11 02:27:36;;;;;;;2.67;2.47;;;20.10;45.40;;;;;;5053372;28;20439;-78
2023/04/11 02:30:05;;;;;;;2.57;2.37;;;20.00;45.40;;;;;;5055752;28;20478;-78
2023/04/11 02:32:33;;;;;;;3.57;2.30;;;20.00;45.60;;;;;;5057932;28;20451;-78
2023/04/11 02:35:03;;;;;;;2.50;2.30;;;19.90;45.40;;;;;;5057224;28;20540;-77
2023/04/11 02:37:31;;;;;;;2.20;2.00;;;19.90;45.20;;;;;;5051947;28;20447;-78
2023/04/11 02:39:59;;;;;;;5.27;2.17;;;19.90;45.60;;;;;;5051974;28;20465;-78
2023/04/11 02:42:26;;;;;;;2.20;1.97;;;19.90;45.40;;;;;;5052525;28;20439;-77
2023/04/11 02:44:55;;;;;;;6.70;2.27;;;19.80;45.30;;;;;;5046462;28;20443;-78
2023/04/11 02:47:23;;;;;;;2.00;1.80;;;19.80;45.30;;;;;;5052538;28;20442;-77
2023/04/11 02:49:51;;;;;;;1.90;1.80;;;19.70;45.50;;;;;;5058509;28;20470;-77
2023/04/11 02:52:20;;;;;;;3.13;2.10;;;19.70;45.40;;;;;;5052932;28;20435;-77
2023/04/11 02:54:48;;;;;;;2.40;1.93;;;19.70;45.50;;;;;;5048846;28;20475;-77
2023/04/11 02:57:16;;;;;;;1.93;1.80;;;19.70;45.50;;;;;;5049706;28;20447;-77
2023/04/11 02:59:44;;;;;;;2.83;2.10;;;19.70;45.50;;;;;;5054511;28;20485;-77
2023/04/11 03:02:12;;;;;;;3.23;2.30;;;19.60;45.50;;;;;;5058918;28;20451;-78
2023/04/11 03:04:39;;;;;;;2.20;1.97;;;19.60;45.50;;;;;;5052859;28;20438;-77
2023/04/11 03:07:07;;;;;;;1.80;1.70;;;19.60;46.00;;;;;;5051119;28;20450;-77
2023/04/11 03:09:36;;;;;;;2.37;2.07;;;19.50;45.50;;;;;;5044285;28;20466;-78
2023/04/11 03:12:04;;;;;;;2.00;1.90;;;19.50;45.40;;;;;;5046126;28;20443;-76
2023/04/11 03:14:32;;;;;;;2.07;1.97;;;19.50;45.50;;;;;;5053827;28;20470;-77
2023/04/11 03:17:00;;;;;;;2.90;1.90;;;19.50;45.50;;;;;;5054923;28;20530;-77
2023/04/11 03:19:28;;;;;;;1.90;1.63;;;19.40;45.60;;;;;;5053721;28;20458;-77
2023/04/11 03:21:56;;;;;;;3.23;2.17;;;19.50;45.60;;;;;;5055934;28;20438;-77
2023/04/11 03:24:23;;;;;;;4.90;2.00;;;19.40;45.50;;;;;;5055421;28;20445;-77
2023/04/11 03:26:52;;;;;;;1.80;1.70;;;19.40;45.60;;;;;;5054247;28;20455;-78
2023/04/11 03:29:20;;;;;;;4.17;2.00;;;19.40;45.60;;;;;;5055532;28;20459;-78
2023/04/11 03:31:48;;;;;;;2.93;1.93;;;19.40;45.60;;;;;;5054691;28;20465;-78
2023/04/11 03:34:17;;;;;;;2.70;1.87;;;19.40;45.70;;;;;;5054203;28;20549;-78
2023/04/11 03:36:45;;;;;;;2.33;1.87;;;19.30;45.60;;;;;;5059907;28;20451;-78
2023/04/11 03:39:13;;;;;;;2.93;2.10;;;19.30;45.60;;;;;;5047180;28;20505;-77
2023/04/11 03:41:41;;;;;;;2.13;1.93;;;19.30;45.80;;;;;;5056655;28;20447;-77
2023/04/11 03:44:11;;;;;;;2.00;1.80;;;19.30;45.60;;;;;;5056012;28;20453;-79
2023/04/11 03:46:39;;;;;;;2.10;1.97;;;19.30;45.70;;;;;;5055863;28;20465;-78
2023/04/11 03:49:06;;;;;;;2.00;1.90;;;19.30;45.60;;;;;;5050624;28;20471;-77
2023/04/11 03:51:35;;;;;;;2.13;2.00;;;19.30;45.80;;;;;;5050107;28;20449;-78
2023/04/11 03:54:02;;;;;;;1.83;1.73;;;19.30;45.90;;;;;;5048768;28;20442;-78
2023/04/11 03:56:30;;;;;;;1.90;1.70;;;19.30;46.00;;;;;;5052065;28;20466;-78
2023/04/11 03:58:58;;;;;;;3.17;2.30;;;19.30;45.80;;;;;;5048530;28;20478;-78
2023/04/11 04:01:27;;;;;;;1.90;1.80;;;19.30;45.90;;;;;;5054295;28;20443;-77
2023/04/11 04:03:55;;;;;;;1.87;1.77;;;19.30;45.90;;;;;;5050929;28;20445;-78
2023/04/11 04:06:25;;;;;;;1.90;1.80;;;19.30;46.00;;;;;;5058546;28;20442;-77
2023/04/11 04:08:53;;;;;;;2.20;2.10;;;19.30;46.00;;;;;;5057159;28;20470;-78
2023/04/11 04:11:21;;;;;;;2.40;1.93;;;19.20;45.80;;;;;;5050088;28;20454;-78
2023/04/11 04:13:49;;;;;;;1.90;1.80;;;19.30;45.80;;;;;;5044708;28;20438;-78
2023/04/11 04:16:17;;;;;;;2.27;2.13;;;19.30;45.80;;;;;;5046165;28;20470;-78
2023/04/11 04:18:47;;;;;;;2.70;1.83;;;19.30;45.80;;;;;;5052098;28;20499;-78
2023/04/11 04:21:15;;;;;;;2.50;2.20;;;19.30;45.90;;;;;;5054137;28;20454;-78
2023/04/11 04:23:46;;;;;;;2.10;1.90;;;19.20;45.70;;;;;;5054316;28;20471;-78
2023/04/11 04:26:15;;;;;;;2.10;2.00;;;19.20;45.70;;;;;;5051214;28;20431;-78
2023/04/11 04:28:46;;;;;;;3.27;2.07;;;19.20;45.80;;;;;;5054429;28;20469;-78
2023/04/11 04:31:19;;;;;;;1.70;1.60;;;19.20;45.70;;;;;;5054901;28;20448;-78
2023/04/11 04:33:49;;;;;;;4.13;2.10;;;19.20;45.80;;;;;;5054451;28;20480;-78
2023/04/11 04:36:17;;;;;;;2.00;1.57;;;19.20;45.70;;;;;;5051051;28;20478;-78
2023/04/11 04:38:46;;;;;;;2.23;2.03;;;19.20;46.00;;;;;;5054229;28;20458;-78
2023/04/11 04:41:14;;;;;;;4.33;2.17;;;19.10;45.70;;;;;;5054437;28;20447;-76
2023/04/11 04:43:42;;;;;;;2.33;1.90;;;19.10;45.80;;;;;;5059843;28;20492;-77
2023/04/11 04:46:10;;;;;;;2.10;1.90;;;19.10;45.80;;;;;;5058519;28;20438;-78
2023/04/11 04:48:38;;;;;;;1.90;1.80;;;19.10;45.90;;;;;;5057036;28;20454;-79
2023/04/11 04:51:08;;;;;;;2.00;1.90;;;19.10;45.70;;;;;;5048275;28;20455;-78
2023/04/11 04:53:37;;;;;;;1.93;1.57;;;19.10;45.80;;;;;;5052419;28;20809;-78
2023/04/11 04:56:06;;;;;;;1.67;1.57;;;19.10;45.80;;;;;;5052047;28;20441;-77
2023/04/11 04:58:34;;;;;;;2.13;1.70;;;19.10;45.90;;;;;;5053530;28;20478;-78
2023/04/11 05:01:02;;;;;;;1.87;1.67;;;19.00;45.70;;;;;;5052670;28;20966;-77
2023/04/11 05:03:33;;;;;;;3.03;2.00;;;19.00;45.80;;;;;;5047092;28;20447;-77
2023/04/11 05:06:01;;;;;;;1.50;1.30;;;19.00;45.80;;;;;;5050633;28;20444;-78
2023/04/11 05:08:31;;;;;;;1.80;1.70;;;19.00;45.90;;;;;;5059510;28;20464;-78
2023/04/11 05:10:58;;;;;;;1.70;1.60;;;18.90;45.80;;;;;;5064921;28;20443;-79
2023/04/11 05:13:27;;;;;;;1.80;1.70;;;18.90;45.80;;;;;;5053125;28;20525;-77
2023/04/11 05:15:55;;;;;;;2.30;1.60;;;18.90;46.00;;;;;;5053411;28;20470;-78
2023/04/11 05:18:22;;;;;;;1.67;1.57;;;18.90;45.80;;;;;;5053707;28;20473;-78
2023/04/11 05:20:50;;;;;;;2.57;1.80;;;18.90;46.00;;;;;;5051787;28;20466;-78
2023/04/11 05:23:19;;;;;;;2.20;2.00;;;18.90;46.10;;;;;;5054026;28;20446;-78
2023/04/11 05:25:48;;;;;;;1.87;1.77;;;18.90;46.00;;;;;;5048913;28;20481;-77
2023/04/11 05:28:15;;;;;;;1.90;1.63;;;18.90;45.90;;;;;;5053646;28;20439;-78
2023/04/11 05:30:43;;;;;;;2.03;1.80;;;18.90;45.90;;;;;;5048371;28;20455;-77
2023/04/11 05:33:13;;;;;;;1.63;1.53;;;19.00;46.10;;;;;;5060944;28;20523;-79
2023/04/11 05:35:41;;;;;;;1.53;1.43;;;19.00;46.00;;;;;;5049678;28;20470;-78
2023/04/11 05:38:09;;;;;;;1.73;1.53;;;19.00;46.00;;;;;;5053063;28;20466;-77
2023/04/11 05:40:37;;;;;;;2.50;1.73;;;18.90;45.90;;;;;;5047490;28;20447;-78
2023/04/11 05:43:07;;;;;;;3.20;1.90;;;19.00;45.90;;;;;;5046354;28;20456;-78
2023/04/11 05:45:35;;;;;;;3.70;1.77;;;19.00;46.20;;;;;;5050656;28;20443;-78
2023/04/11 05:48:03;;;;;;;4.20;1.60;;;19.00;46.10;;;;;;5052480;28;20971;-78
2023/04/11 05:50:32;;;;;;;1.80;1.70;;;19.00;46.00;;;;;;5048788;28;20485;-77
2023/04/11 05:53:00;;;;;;;4.07;1.87;;;19.00;46.10;;;;;;5049795;28;20446;-78
2023/04/11 05:55:28;;;;;;;1.70;1.60;;;19.00;46.10;;;;;;5058667;28;20463;-77
2023/04/11 05:57:55;;;;;;;1.77;1.63;;;19.10;46.10;;;;;;5049961;28;20447;-78
2023/04/11 06:00:29;;;;;;;1.90;1.80;;;19.10;46.10;;;;;;5048242;28;20449;-78
2023/04/11 06:02:57;;;;;;;2.47;2.27;;;19.10;46.10;;;;;;5052792;28;20451;-78
2023/04/11 06:05:25;;;;;;;2.20;2.10;;;19.10;46.00;;;;;;5044617;28;20477;-78
2023/04/11 06:07:56;;;;;;;4.77;2.23;;;19.10;46.20;;;;;;5054950;28;20473;-78
2023/04/11 06:10:24;;;;;;;2.53;2.33;;;19.10;46.00;;;;;;5048186;28;20478;-77
2023/04/11 06:12:52;;;;;;;2.40;2.20;;;19.10;46.00;;;;;;5051951;28;20454;-77
2023/04/11 06:15:20;;;;;;;2.37;2.17;;;19.10;46.00;;;;;;5052472;28;20447;-77
2023/04/11 06:17:49;;;;;;;2.63;2.43;;;19.10;46.10;;;;;;5052314;28;20465;-77
2023/04/11 06:20:17;;;;;;;5.20;2.50;;;19.10;46.10;;;;;;5048912;28;20536;-78
2023/04/11 06:22:45;;;;;;;7.43;2.40;;;19.10;46.20;;;;;;5053512;28;20451;-79
2023/04/11 06:25:14;;;;;;;2.70;2.17;;;19.20;46.00;;;;;;5050533;28;20453;-78
2023/04/11 06:27:42;;;;;;;2.53;2.33;;;19.30;46.00;;;;;;5049481;28;20462;-78
2023/04/11 06:30:10;;;;;;;2.90;2.43;;;19.30;45.90;;;;;;5048111;28;20470;-77
2023/04/11 06:32:38;;;;;;;3.20;2.27;;;19.40;45.80;;;;;;5054427;28;20442;-79
2023/04/11 06:35:08;;;;;;;2.63;2.33;;;19.40;45.80;;;;;;5054933;28;20935;-78
2023/04/11 06:37:36;;;;;;;2.80;2.60;;;19.50;45.90;;;;;;5061519;28;20524;-78
2023/04/11 06:40:05;;;;;;;2.80;2.50;;;19.50;45.80;;;;;;5053822;28;20454;-78
2023/04/11 06:42:32;;;;;;;2.83;2.20;;;19.60;45.80;;;;;;5057138;28;20454;-79
2023/04/11 06:45:01;;;;;;;2.77;2.57;;;19.70;45.60;;;;;;5052715;28;20446;-79
2023/04/11 06:47:28;;;;;;;5.00;2.80;;;19.70;45.60;;;;;;5051775;28;20954;-77
2023/04/11 06:49:56;;;;;;;2.50;2.30;;;19.70;45.50;;;;;;5051545;28;20466;-77
2023/04/11 06:52:26;;;;;;;3.10;2.80;;;19.70;45.60;;;;;;5053919;28;20454;-78
2023/04/11 06:54:55;;;;;;;4.40;2.80;;;19.70;45.50;;;;;;5046414;28;20923;-78
2023/04/11 06:57:22;;;;;;;3.63;2.37;;;19.70;45.60;;;;;;5045613;28;20473;-77
2023/04/11 06:59:50;;;;;;;4.00;2.60;;;19.70;45.50;;;;;;5049739;28;21056;-77
2023/04/11 07:02:18;;;;;;;2.53;2.33;;;19.70;45.60;;;;;;5053062;28;20465;-78
2023/04/11 07:04:46;;;;;;;3.60;2.63;;;19.60;45.60;;;;;;5051856;28;20446;-78
2023/04/11 07:07:15;;;;;;;5.57;2.60;;;19.70;45.70;;;;;;5046780;28;20493;-78
2023/04/11 07:09:45;;;;;;;2.80;2.60;;;19.70;45.70;;;;;;5048623;28;20463;-76
2023/04/11 07:12:13;;;;;;;3.07;2.77;;;19.70;45.60;;;;;;5041007;28;20964;-77
2023/04/11 07:14:41;;;;;;;2.57;2.23;;;19.70;45.50;;;;;;5053007;28;20454;-78
2023/04/11 07:17:09;;;;;;;4.50;2.50;;;19.70;45.50;;;;;;5054003;28;20470;-77
2023/04/11 07:19:38;;;;;;;3.13;2.40;;;19.70;45.40;;;;;;5054654;28;20473;-78
2023/04/11 07:22:05;;;;;;;5.90;2.67;;;19.70;45.50;;;;;;5042969;28;20451;-78
2023/04/11 07:24:34;;;;;;;2.60;2.40;;;19.80;45.60;;;;;;5047500;28;20458;-78
2023/04/11 07:27:05;;;;;;;2.50;2.30;;;19.80;45.50;;;;;;5054396;28;20450;-78
2023/04/11 07:29:33;;;;;;;3.63;2.50;;;19.80;45.40;;;;;;5049950;28;20454;-76
2023/04/11 07:32:01;;;;;;;3.57;2.30;;;19.80;45.30;;;;;;5048949;28;20461;-76
2023/04/11 07:34:29;;;;;;;2.53;2.33;;;19.80;45.40;;;;;;5047461;28;20447;-77
2023/04/11 07:36:59;;;;;;;2.57;2.37;;;19.80;45.60;;;;;;5052871;28;20883;-76
2023/04/11 07:39:27;;;;;;;3.80;2.40;;;19.90;45.50;;;;;;5046026;28;20474;-76
2023/04/11 07:41:55;;;;;;;2.20;2.00;;;19.90;45.40;;;;;;5053831;28;20439;-76
2023/04/11 07:44:24;;;;;;;2.60;2.40;;;19.90;45.40;;;;;;5050933;28;20490;-76
2023/04/11 07:46:53;;;;;;;3.63;2.10;;;19.90;45.50;;;;;;5059368;28;20429;-77
2023/04/11 07:49:21;;;;;;;5.23;2.03;;;20.00;45.50;;;;;;5048623;28;20479;-76
2023/04/11 07:51:49;;;;;;;2.80;2.20;;;20.00;45.20;;;;;;5062418;28;20454;-76
2023/04/11 07:54:17;;;;;;;2.60;2.27;;;20.10;45.20;;;;;;5051851;28;20459;-75
2023/04/11 07:56:45;;;;;;;3.57;2.67;;;20.00;45.00;;;;;;5043724;28;20467;-76
2023/04/11 07:59:14;;;;;;;2.43;2.30;;;20.00;45.10;;;;;;5043049;28;20486;-76
2023/04/11 08:01:44;;;;;;;6.33;2.60;;;20.00;45.20;;;;;;5048067;28;20514;-76
2023/04/11 08:04:11;;;;;;;3.13;2.00;;;20.00;45.10;;;;;;5059042;28;20454;-75
2023/04/11 08:06:40;;;;;;;2.90;2.20;;;19.90;45.10;;;;;;5045441;28;20443;-76
2023/04/11 08:09:09;;;;;;;12.40;2.37;;;20.00;45.30;;;;;;5057161;28;20471;-75
2023/04/11 08:11:38;;;;;;;2.50;2.30;;;20.00;45.60;;;;;;5052451;28;20490;-76
2023/04/11 08:14:06;;;;;;;3.80;2.20;;;20.00;45.50;;;;;;5047992;28;20461;-76
2023/04/11 08:16:35;;;;;;;4.47;2.57;;;20.00;45.30;;;;;;5049019;28;20465;-75
2023/04/11 08:19:04;;;;;;;6.30;2.40;;;19.90;45.30;;;;;;5051939;28;20455;-77
2023/04/11 08:21:32;;;;;;;2.60;2.40;;;19.90;45.60;;;;;;5048302;28;20454;-76
2023/04/11 08:24:00;;;;;;;3.87;2.50;;;19.80;46.10;;;;;;5049309;28;20476;-77
2023/04/11 08:26:28;;;;;;;3.03;2.30;;;19.70;45.60;;;;;;5050318;28;20463;-76
2023/04/11 08:28:56;;;;;;;2.70;2.13;;;19.70;45.70;;;;;;5040022;28;20466;-75
2023/04/11 08:31:25;;;;;;;3.57;2.00;;;19.70;45.60;;;;;;5045940;28;20447;-76
2023/04/11 08:33:53;;;;;;;2.83;2.23;;;19.60;45.70;;;;;;5053477;28;20477;-76
2023/04/11 08:36:24;;;;;;;7.60;2.30;;;19.60;45.90;;;;;;5048970;28;20477;-75
2023/04/11 08:38:54;;;;;;;7.67;1.90;;;19.60;45.90;;;;;;5047046;28;20474;-76
2023/04/11 08:41:21;;;;;;;3.33;2.50;;;19.60;46.00;;;;;;5050100;28;20454;-75
2023/04/11 08:43:49;;;;;;;4.13;2.33;;;19.50;46.00;;;;;;5052748;28;20462;-76
2023/04/11 08:46:17;;;;;;;3.33;2.30;;;19.50;46.10;;;;;;5046535;28;20561;-74
2023/04/11 08:48:45;;;;;;;2.57;2.13;;;19.50;46.20;;;;;;5046121;28;20473;-76
2023/04/11 08:51:13;;;;;;;3.37;2.10;;;19.50;46.30;;;;;;5047227;28;20458;-76
2023/04/11 08:53:43;;;;;;;4.00;2.53;;;19.50;46.30;;;;;;5051857;28;20451;-75
2023/04/11 08:56:14;;;;;;;2.67;2.10;;;19.60;46.40;;;;;;5037644;28;20474;-76
2023/04/11 08:58:42;;;;;;;3.57;2.43;;;19.70;46.40;;;;;;5052353;28;20478;-76
2023/04/11 09:01:27;;;;;;;2.70;2.17;;;19.70;46.30;;;;;;5044611;28;20448;-76
2023/04/11 09:03:55;;;;;;;4.30;1.97;;;19.90;46.30;;;;;;5040480;28;20460;-75
2023/04/11 09:06:25;;;;;;;4.10;2.20;;;20.00;46.30;;;;;;5045700;28;20442;-76
2023/04/11 09:08:55;;;;;;;4.90;2.30;;;20.20;46.40;;;;;;5047052;28;20478;-77
2023/04/11 09:11:24;;;;;;;2.53;1.93;;;20.40;46.20;;;;;;5050665;28;20450;-75
2023/04/11 09:14:05;;;;;;;4.73;2.60;;;20.50;46.20;;;;;;5050048;28;20446;-77
2023/04/11 09:16:33;;;;;;;4.70;2.80;;;20.60;46.10;;;;;;5054018;28;20454;-78
2023/04/11 09:19:01;;;;;;;3.87;2.23;;;20.70;46.00;;;;;;5049185;28;20497;-78
2023/04/11 09:21:30;;;;;;;3.23;2.43;;;20.80;46.20;;;;;;5052350;28;20497;-79
2023/04/11 09:37:18;;;;;;;5.00;2.10;;;20.90;46.60;;;;;;5107300;27;20556;-76
2023/04/11 09:39:46;;;;;;;7.13;2.67;;;22.20;46.90;;;;;;5094433;28;20472;-76
2023/04/11 09:42:24;;;;;;;6.50;2.70;;;22.20;46.50;;;;;;5090274;28;20445;-77
2023/04/11 09:44:52;;;;;;;3.80;2.53;;;22.10;46.50;;;;;;5080140;28;20564;-77
2023/04/11 09:47:20;;;;;;;3.03;2.47;;;21.90;46.50;;;;;;5099586;28;20449;-77
2023/04/11 09:49:48;;;;;;;4.90;2.40;;;21.80;46.60;;;;;;5088080;28;20469;-78
2023/04/11 09:52:18;;;;;;;5.10;2.60;;;21.70;46.60;;;;;;5083221;28;20445;-77
2023/04/11 09:54:45;;;;;;;4.83;2.33;;;21.50;46.40;;;;;;5086921;28;20449;-78
2023/04/11 09:57:13;;;;;;;6.90;2.47;;;21.40;46.60;;;;;;5083202;28;20941;-75
2023/04/11 09:59:41;;;;;;;4.67;2.43;;;21.30;46.60;;;;;;5081312;28;20992;-77
2023/04/11 10:02:09;;;;;;;5.13;2.40;;;21.20;46.50;;;;;;5088147;28;20437;-77
2023/04/11 10:04:37;;;;;;;2.67;2.10;;;21.20;46.50;;;;;;5079772;28;20448;-77
2023/04/11 10:07:07;;;;;;;2.33;2.13;;;21.20;46.50;;;;;;5078141;28;20442;-78
2023/04/11 10:09:39;;;;;;;4.67;2.20;;;21.20;46.50;;;;;;5082629;28;20458;-77
2023/04/11 10:12:07;;;;;;;5.27;2.40;;;21.30;46.30;;;;;;5080175;28;20528;-80
2023/04/11 10:14:46;;;;;;;8.77;3.20;;;21.40;46.40;;;;;;5083824;28;20540;-77
2023/04/11 10:17:15;;;;;;;2.83;2.50;;;21.60;46.40;;;;;;5076163;28;20516;-79
2023/04/11 10:19:50;;;;;;;3.80;2.10;;;21.80;46.60;;;;;;5089239;28;20488;-79
2023/04/11 10:22:55;;;;;;;7.07;2.37;;;22.10;46.50;;;;;;5089682;28;20451;-80
2023/04/11 10:25:25;;;;;;;6.60;2.30;;;22.50;46.50;;;;;;5088539;28;20475;-79
2023/04/11 10:27:59;;;;;;;3.63;2.30;;;23.00;46.10;;;;;;5089736;28;20437;-78
2023/04/11 10:31:03;;;;;;;2.53;2.30;;;23.20;45.70;;;;;;5084246;28;20473;-79
2023/04/11 10:33:32;;;;;;;3.53;2.33;;;23.50;45.80;;;;;;5084867;28;20539;-77
2023/04/11 10:36:02;;;;;;;3.20;2.43;;;23.90;45.70;;;;;;5079613;28;20457;-78
2023/04/11 10:38:47;;;;;;;5.47;2.70;;;24.20;45.60;;;;;;5066152;28;20473;-77
2023/04/11 10:41:18;;;;;;;5.90;2.40;;;24.40;44.90;;;;;;5070933;28;20786;-78
2023/04/11 10:43:46;;;;;;;5.43;2.70;;;24.30;44.60;;;;;;5069049;28;20466;-76
2023/04/11 10:46:18;;;;;;;3.57;2.33;;;24.10;44.70;;;;;;5070715;28;20466;-77
2023/04/11 10:48:56;;;;;;;3.23;2.10;;;23.80;44.70;;;;;;5068553;28;20478;-76
2023/04/11 10:51:24;;;;;;;2.73;2.43;;;23.70;45.20;;;;;;5079528;28;20440;-79
2023/04/11 10:53:52;;;;;;;2.60;2.40;;;23.80;45.60;;;;;;5075990;28;20423;-77
2023/04/11 11:09:55;;;;;;;3.47;2.87;;;23.80;45.10;;;;;;5117561;27;21108;-77
2023/04/11 11:12:23;;;;;;;3.17;2.93;;;25.50;44.00;;;;;;5106088;28;20428;-76
2023/04/11 11:14:53;;;;;;;3.10;2.73;;;25.70;43.90;;;;;;5102777;28;20440;-75
2023/04/11 11:17:22;;;;;;;7.93;2.77;;;26.30;44.00;;;;;;5103767;28;20456;-77
2023/04/11 11:19:50;;;;;;;3.53;2.93;;;27.30;42.30;;;;;;5102924;28;20508;-78
2023/04/11 11:22:25;;;;;;;3.70;3.00;;;28.30;42.20;;;;;;5106326;28;20428;-78
2023/04/11 11:24:54;;;;;;;3.47;2.83;;;29.90;39.60;;;;;;5110239;28;20450;-78
2023/04/11 11:27:23;;;;;;;3.77;2.80;;;29.50;36.70;;;;;;5109050;28;20795;-75
2023/04/11 11:29:52;;;;;;;5.73;2.83;;;28.60;37.50;;;;;;5109143;28;20434;-75
2023/04/11 11:32:21;;;;;;;3.00;2.63;;;27.70;38.80;;;;;;5100197;28;20457;-75
2023/04/11 11:34:51;;;;;;;5.53;3.10;;;27.70;38.80;;;;;;5103116;28;20431;-76
2023/04/11 11:37:20;;;;;;;3.43;2.83;;;27.30;39.60;;;;;;5112239;28;20457;-75
2023/04/11 11:39:48;;;;;;;5.87;2.80;;;27.40;40.40;;;;;;5104173;28;20852;-76
2023/04/11 11:42:17;;;;;;;4.10;3.10;;;26.90;40.30;;;;;;5105722;28;20444;-76
2023/04/11 11:44:45;;;;;;;3.80;2.80;;;26.40;40.30;;;;;;5106881;28;20452;-76
2023/04/11 11:47:14;;;;;;;2.77;2.57;;;26.00;41.10;;;;;;5107788;28;20462;-76
2023/04/11 11:49:46;;;;;;;4.70;3.13;;;25.70;41.70;;;;;;5104694;28;20533;-77
2023/04/11 11:52:29;;;;;;;2.90;2.60;;;25.40;42.00;;;;;;5108297;28;20419;-76
2023/04/11 11:54:57;;;;;;;3.10;2.80;;;25.20;42.50;;;;;;5104323;28;20443;-77
2023/04/11 11:57:27;;;;;;;4.40;2.83;;;25.00;42.80;;;;;;5107919;28;20486;-75
2023/04/11 11:59:55;;;;;;;4.47;2.80;;;24.80;43.40;;;;;;5103248;28;20419;-76
2023/04/11 12:02:24;;;;;;;3.10;2.90;;;24.60;43.40;;;;;;5090918;28;20433;-77
2023/04/11 12:04:58;;;;;;;2.80;2.60;;;24.50;43.70;;;;;;5097945;28;20476;-76
2023/04/11 12:07:27;;;;;;;6.13;3.00;;;24.40;43.70;;;;;;5112503;28;20443;-76
2023/04/11 12:09:58;;;;;;;3.50;3.20;;;24.40;44.10;;;;;;5095795;28;20477;-75
2023/04/11 12:12:33;;;;;;;4.83;2.50;;;24.50;44.20;;;;;;5093040;28;20471;-77
2023/04/11 12:15:02;;;;;;;3.97;3.20;;;24.80;43.80;;;;;;5092345;28;20444;-76
2023/04/11 12:17:34;;;;;;;4.20;3.10;;;24.80;43.40;;;;;;5101225;28;20539;-77
2023/04/11 12:20:07;;;;;;;3.97;2.60;;;24.60;43.20;;;;;;5093556;28;20468;-77
2023/04/11 12:22:35;;;;;;;2.93;2.73;;;24.50;43.60;;;;;;5089452;28;20434;-77
2023/04/11 12:25:06;;;;;;;3.27;2.97;;;24.40;43.60;;;;;;5095008;28;20453;-77
2023/04/11 12:27:36;;;;;;;4.20;2.50;;;24.30;43.90;;;;;;5092859;28;20453;-77
2023/04/11 12:30:05;;;;;;;3.10;2.60;;;24.20;43.90;;;;;;5093525;28;20483;-78
2023/04/11 12:32:33;;;;;;;3.07;2.73;;;24.10;44.10;;;;;;5082658;28;20453;-76
2023/04/11 12:35:02;;;;;;;3.00;2.70;;;24.00;44.10;;;;;;5089077;28;20455;-77
2023/04/11 12:37:30;;;;;;;3.10;2.30;;;23.90;44.20;;;;;;5092074;28;20442;-77
2023/04/11 12:39:58;;;;;;;3.80;2.57;;;23.90;44.30;;;;;;5093853;28;20440;-76
2023/04/11 12:42:26;;;;;;;2.73;2.40;;;23.80;44.40;;;;;;5094329;28;20435;-77
2023/04/11 12:44:55;;;;;;;3.80;2.63;;;23.90;44.60;;;;;;5094613;28;20429;-77
2023/04/11 12:47:23;;;;;;;4.47;2.83;;;23.90;44.50;;;;;;5094208;28;20441;-76
2023/04/11 12:49:51;;;;;;;3.07;2.60;;;24.10;44.50;;;;;;5088191;28;20472;-77
2023/04/11 12:52:20;;;;;;;3.00;2.70;;;24.60;45.00;;;;;;5089326;28;20464;-77
2023/04/11 12:54:48;;;;;;;2.90;2.60;;;26.70;44.90;;;;;;5086309;28;20449;-78
2023/04/11 12:57:16;;;;;;;2.40;2.30;;;29.50;41.20;;;;;;5089486;28;20432;-78
2023/04/11 12:59:44;;;;;;;2.43;2.23;;;31.40;35.20;;;;;;5092886;28;20493;-77
2023/04/11 13:02:13;;;;;;;3.37;2.40;;;32.20;34.20;;;;;;5088225;28;20850;-77
2023/04/11 13:04:41;;;;;;;5.80;2.10;;;31.50;32.00;;;;;;5095159;28;20444;-77
2023/04/11 13:07:09;;;;;;;2.60;1.73;;;31.50;34.20;;;;;;5097486;28;20464;-76
2023/04/11 13:09:37;;;;;;;1.60;1.50;;;32.70;31.70;;;;;;5094166;28;20499;-77
2023/04/11 13:12:05;;;;;;;1.60;1.50;;;33.90;29.60;;;;;;5093720;28;20425;-76
2023/04/11 13:14:35;;;;;;;2.53;1.53;;;34.90;28.30;;;;;;5092990;28;20434;-76
2023/04/11 13:17:03;;;;;;;1.60;1.50;;;33.70;27.90;;;;;;5089597;28;20528;-76
2023/04/11 13:19:32;;;;;;;1.90;1.80;;;34.30;28.80;;;;;;5089434;28;20452;-77
2023/04/11 13:22:00;;;;;;;2.20;1.73;;;33.40;28.30;;;;;;5086494;28;20484;-77
2023/04/11 13:24:28;;;;;;;1.80;1.60;;;33.30;27.70;;;;;;5090738;28;20535;-75